Saint Médard d'Aunis (17)                   Juillet 2012                      
  Température (°C) - Abri Young à ventilation mécanique 43502 Humidité Vent (km/h) Précipitations (mm) Pression (hPa) Divers  
Date Maxi Mini Moy de 1440 relevés Moy (tx+tn)/2 Index chaleur moyen Index chaleur maxi Froid dû au vent moy  Froid dû au vent mini/1min   Amplitude (Tx-Tn) Tx OMM/1min Tn OMM/1min Tm OMM/1min Relative maxi Relative mini Relative moy de 1440 relevés Relative moy (hx+hn)/2 Point de rosée maxi Point de rosée mini Point de rosée moy 1440 relevés Vent moy maxi (10min) Vent  moyen (24h) Direction dominante Rafales (km/h) maxi Direction rafale maxi Rafales moy (24h) Total du jour (mm) Durée en heures et dixièmes Intensité maxi sur 1 min (mm/h) Maxi Mini Moy de 1440 relevés Moy (px+pn)/2 Variation Epaisseur neige (cm) Remarques diverses  
01/07/2012 22,1 6,6 14,98 14,35 14,64 21,0 14,40 6,6 15,5 21,7 6,6 14,15 97% 36% 70,8% 66,5% 13,7 4,6 9,05 23,32 9,47 WNW 37,0 WSW 12,82 0,2 0,1 12,0 1023,5 1019,8 1021,99 1021,65 3,7   Ciel entre 3/8 et 6/8 le matin, 5/8 à 3/8 l'après-midi  
02/07/2012 22,1 6,5 15,13 14,30 15,05 21,6 14,80 6,5 15,6 22,1 6,6 14,35 96% 49% 75,7% 72,5% 13,6 5,0 10,54 20,10 7,88 W 32,2 SW 10,53 0,0 0,0 0,0 1022,0 1020,2 1020,92 1021,10 1,8   Ciel entre 3/8 et 7/8 le matin, 5/8 à 3/8 l'après-midi  
03/07/2012 26,4 11,3 18,77 18,85 18,62 26,0 18,60 11,3 15,1 26,3 11,3 18,80 92% 33% 67,9% 62,5% 14,4 6,0 11,98 21,38 7,33 SE 29,0 W 10,10 0,0 0,0 0,0 1020,2 1015,4 1017,74 1017,80 4,8   Ciel 4/8 à 6/8  
04/07/2012 25,0 10,2 17,82 17,60 18,22 25,6 17,21 10,2 14,8 24,7 10,2 17,45 95% 62% 82,9% 78,5% 18,9 8,8 14,73 30,76 9,84 W 41,8 WSW 12,98 0,0 0,0 0,0 1015,5 1012,7 1013,68 1014,10 2,8   Ciel entre 5/8 et 8/8, traces de précipitations l'après-midi  
05/07/2012 23,2 11,8 17,04 17,50 17,03 23,0 16,29 11,9 11,4 22,9 11,9 17,40 94% 53% 77,4% 73,5% 16,4 10,5 12,82 23,80 11,87 WSW 40,2 SW 16,10 0,8 0,2 12,0 1013,3 1011,3 1012,05 1012,30 2,0   Ciel entre 5/8 et 7/8, faibles averses l'après-midi et le soir  
06/07/2012 22,1 12,7 17,25 17,40 17,43 22,0 16,02 11,8 9,4 21,9 12,7 17,30 97% 58% 81,7% 77,5% 17,4 11,8 13,93 31,08 15,74 SW 43,5 WSW 20,80 12,2 1,3 96,0 1014,0 1011,2 1012,73 1012,60 2,8   Ciel entre 6/8 et 8/8, averses  
07/07/2012 25,8 16,1 19,63 20,95 20,07 26,0 18,71 12,9 9,7 25,6 16,1 20,85 97% 57% 81,2% 77,0% 18,3 13,7 16,03 23,82 14,51 SW 38,6 WSW 19,90 6,4 1,0 60,0 1013,5 1008,9 1011,05 1011,20 4,6   Ciel entre 4/8 et 8/8, averses  
08/07/2012 21,7 14,9 18,06 18,30 18,36 21,4 16,75 12,6 6,8 21,6 15,0 18,30 97% 62% 82,2% 79,5% 16,1 12,7 14,86 26,22 16,27 W 41,8 WSW 20,88 1,6 0,5 24,0 1017,0 1010,5 1014,59 1013,75 6,5   Ciel entre 5/8 et 8/8, averses  
09/07/2012 23,6 14,2 18,48 18,90 18,75 23,7 17,89 14,3 9,4 23,2 14,3 18,75 97% 59% 81,9% 78,0% 17,0 13,0 15,17 24,76 11,30 W 37,0 W 14,65 0,8 0,3 12,0 1017,9 1016,2 1016,95 1017,05 1,7   Ciel 8/8 à 6/8 le matin, pluie intermittente, 6/8 à 2/8 ensuite  
10/07/2012 21,1 13,1 16,94 17,10 16,89 20,5 16,15 12,2 8,0 20,8 13,1 16,95 94% 55% 76,1% 74,5% 15,2 9,0 12,53 24,29 10,67 W 40,2 W 13,69 0,0 0,0 0,0 1020,1 1016,7 1018,28 1018,40 3,4   Ciel 8/8 à 7/8  
11/07/2012 22,2 13,2 17,08 17,70 16,98 21,9 16,03 12,6 9,0 22,0 13,2 17,60 88% 54% 73,8% 71,0% 14,5 10,8 12,25 26,38 14,64 W 37,0 WSW 18,84 0,0 0,0 0,0 1023,1 1019,5 1021,22 1021,30 3,6   Ciel 8/8 à 6/8 le matin, 6/8 à 4/8 l'après-midi, 7/8 le soir, traces de précip.  
12/07/2012 21,7 15,3 17,78 18,50 17,72 20,8 16,44 13,7 6,4 21,4 15,3 18,35 83% 54% 71,7% 68,5% 14,1 10,3 12,52 23,47 16,53 W 38,6 WSW 21,25 0,0 0,0 0,0 1022,8 1016,5 1020,81 1019,65 6,3   Ciel entre 3/8 et 8/8  
13/07/2012 18,8 15,2 17,07 17,00 17,45 19,4 14,27 11,7 3,6 18,8 15,3 17,05 99% 78% 92,3% 88,5% 17,6 12,4 15,77 51,34 26,09 WSW 74,0 W 35,69 31,4 8,3 12,0 1016,8 1007,0 1010,69 1011,90 9,8   Ciel 8/8, pluie, 4/8 le soir  
14/07/2012 21,2 14,3 17,11 17,75 17,24 21,1 14,68 11,4 6,9 21,1 14,4 17,75 93% 65% 79,9% 79,0% 15,6 11,8 13,53 38,60 23,19 W 51,5 W 28,95 1,8 0,5 12,0 1018,4 1012,1 1015,19 1015,25 6,3   Ciel entre 5/8 et 8/8, averses  
15/07/2012 20,6 8,9 15,56 14,75 15,51 20,4 14,53 9,0 11,7 20,4 9,0 14,70 96% 50% 79,1% 73,0% 15,7 8,1 11,71 28,33 12,50 WNW 45,1 NW 16,52 4,6 0,6 60,0 1028,8 1018,4 1023,31 1023,60 10,4   Ciel entre 4/8 et 8/8, averses, 1/8 le soir  
16/07/2012 21,9 7,2 15,29 14,55 15,30 21,4 14,92 7,2 14,7 21,7 7,2 14,45 98% 51% 79,1% 74,5% 14,5 6,5 11,33 19,62 7,71 W 33,8 W 10,28 0,2 0,1 12,0 1031,5 1028,8 1030,34 1030,15 2,7   Ciel entre 2/8 et 7/8 le matin, 3/8 l'après-midi, 1/8 le soir  
17/07/2012 26,1 8,2 17,60 17,15 17,69 25,8 17,53 8,2 17,9 25,9 8,2 17,05 99% 40% 74,2% 69,5% 16,3 7,5 12,22 15,62 4,99 NW 25,7 W 7,14 0,0 0,0 0,0 1031,4 1025,8 1029,48 1028,60 5,6   Ciel 3/8 le matin à 0/8 le soir  
18/07/2012 27,3 11,6 19,34 19,45 19,35 26,4 18,85 11,5 15,7 27,3 11,6 19,45 99% 25% 72,1% 62,0% 17,9 5,0 13,09 22,82 9,88 WNW 33,8 WNW 13,34 0,0 0,0 0,0 1025,9 1018,9 1021,34 1022,40 7,0   Ciel 0/8, 3/8 l'après-midi, 5/8 le soir, voilé  
19/07/2012 23,1 13,2 18,26 18,15 18,32 23,1 17,44 13,1 9,9 22,9 13,3 18,10 96% 48% 76,5% 72,0% 16,7 10,2 13,78 24,45 13,26 WNW 37,0 WSW 17,37 0,2 0,1 12,0 1019,4 1017,8 1018,68 1018,60 1,6   Ciel entre 6/8 et 8/8, pluie faible, 2/8 l'après-midi  
20/07/2012 21,9 13,2 16,65 17,55 16,74 21,6 16,35 13,0 8,7 21,7 13,3 17,50 96% 59% 82,1% 77,5% 15,3 11,7 13,40 22,02 8,88 NNW 32,2 W 12,01 1,8 0,8 12,0 1022,2 1017,3 1019,47 1019,75 4,9   Ciel entre 6/8 et 8/8 le matin, averses, 4/8 à 6/8 l'après-midi, 2/8 le soir  
21/07/2012 24,6 9,1 17,75 16,85 17,76 24,4 17,50 9,2 15,5 24,3 9,2 16,75 99% 49% 73,8% 74,0% 14,8 8,6 12,53 20,90 8,06 NNW 33,8 W 11,11 0,2 0,1 12,0 1025,7 1021,7 1023,63 1023,70 4,0   Ciel 0/8 à 4/8 le matin, 5/8 à 3/8 ensuite  
22/07/2012 27,4 11,7 19,83 19,55 19,62 26,5 19,74 11,7 15,7 27,0 11,7 19,35 95% 36% 63,4% 65,5% 14,0 9,7 11,69 14,49 7,05 NE 25,7 NE 9,95 0,0 0,0 0,0 1026,5 1024,7 1025,54 1025,60 1,8   Ciel entre 0/8 et 3/8, voilé  
23/07/2012 29,0 10,2 20,42 19,60 19,95 28,0 20,21 10,3 18,8 28,7 10,3 19,50 92% 29% 56,6% 60,5% 13,1 8,4 10,28 19,78 9,19 NE 32,2 NE 13,04 0,0 0,0 0,0 1025,5 1018,0 1021,32 1021,75 7,5   Ciel 0/8  
24/07/2012 30,7 9,9 21,56 20,30 21,20 29,7 21,49 9,9 20,8 30,6 9,9 20,25 89% 25% 55,5% 57,0% 15,1 7,3 11,22 20,58 8,19 NNE 30,6 SSE 11,31 0,0 0,0 0,0 1018,0 1013,9 1015,39 1015,95 4,1   Ciel 0/8  
25/07/2012 33,6 12,3 24,28 22,95 24,28 33,8 24,26 12,3 21,3 33,4 12,3 22,85 89% 30% 57,0% 59,5% 17,7 10,0 14,11 21,06 7,42 WNW 30,6 W 10,19 0,0 0,0 0,0 1015,3 1013,6 1014,48 1014,45 1,7   Ciel 0/8 à 1/8  
26/07/2012 35,6 14,2 25,32 24,90 25,81 36,8 25,30 14,3 21,4 35,5 14,3 24,90 94% 32% 61,3% 63,0% 18,9 12,8 16,13 17,54 5,98 W 29,0 SSE 8,21 0,0 0,0 0,0 1015,4 1012,8 1014,09 1014,10 2,6   Ciel 0/8, 5/8 en fin d'après-midi  
27/07/2012 23,9 17,7 21,12 20,80 22,03 25,4 20,62 17,8 6,2 23,9 17,8 20,85 96% 70% 85,7% 83,0% 21,4 15,5 18,58 22,34 10,48 SSW 38,6 SSW 14,21 0,8 0,3 12,0 1014,8 1011,0 1013,47 1012,90 3,8   Ciel entre 6/8 et 8/8, pluie par intermittence, 4/8 le soir  
28/07/2012 24,1 12,6 19,43 18,35 19,66 24,4 18,64 12,2 11,5 23,9 12,7 18,30 96% 44% 75,4% 70,0% 18,5 8,9 14,67 27,51 12,69 WNW 43,5 WNW 17,16 0,0 0,0 0,0 1018,2 1011,9 1014,94 1015,05 6,3   Ciel entre 4/8 et 8/8 le matin, 2/8 l'après-midi  
29/07/2012 22,6 10,3 16,89 16,45 16,82 22,4 16,11 10,3 12,3 22,4 10,3 16,35 93% 58% 74,8% 75,5% 14,7 8,1 12,16 28,98 11,15 W 40,2 W 14,42 0,0 0,0 0,0 1021,0 1018,1 1019,49 1019,55 2,9   Ciel 4/8 à 5/8 le matin, 5/8 à 2/8 l'après-midi  
30/07/2012 23,8 12,9 17,96 18,35 18,18 24,3 16,98 13,0 10,9 23,6 13,0 18,30 96% 57% 81,8% 76,5% 17,5 12,2 14,60 31,07 13,44 WSW 41,8 W 17,06 0,0 0,0 0,0 1021,6 1019,7 1020,37 1020,65 1,9   Ciel 5/8 à 8/8 le matin, 8/8 à 3/8 ensuite, traces de précipitations  
31/07/2012 28,6 8,8 19,69 18,70 19,62 28,2 19,68 8,9 19,8 28,5 8,9 18,70 99% 36% 67,0% 67,5% 15,3 8,3 12,36 13,54 4,42 NNE 22,5 WNW 6,54 0,0 0,0 0,0 1021,3 1013,3 1018,10 1017,30 8,0   Ciel 1/8 à 0/8  
  Température (°C) - Abri Young à ventilation mécanique 43502 Humidité Vent (km/h) Précipitations (mm) Pression (hPa) Divers  
  Maxi Mini Moy de 1440 relevés Moy (tx+tn)/2 Index chaleur moyen Index chaleur maxi Froid dû au vent moy  Froid dû au vent mini/1min   Amplitude (Tx-Tn) Tx OMM/1min Tn OMM/1min Tm OMM/1min Relative maxi Relative mini Relative moy de 1440 relevés Relative moy (hx+hn)/2 Point de rosée maxi Point de rosée mini Point de rosée moy 1440 relevés Vent moy maxi (10min) Vent  moyen (24h) Direction dominante Rafales (km/h) maxi Direction rafale maxi Rafales moy (24h) Total du jour (mm) Durée en heures et dixièmes Intensité maxi sur 1 min (mm/h) Maxi Mini Moy de 1440 relevés Moy (px+pn)/2 Variation Epaisseur neige (cm) Remarques diverses  
Maxi 35,6 17,7 25,32 24,90 25,81 36,8 25,30 17,8 21,4 35,5 17,8 24,90 99% 78% 92,3% 88,5% 21,4 15,5 18,58 51,34 26,09 W 74,0 W 35,69 31,4 8,3 96,0 1031,5 1028,8 1030,34 1030,15 10,4 0,0    
Mini 18,8 6,5 14,98 14,30 14,64 19,4 14,27 6,5 3,6 18,8 6,6 14,15 83% 25% 55,5% 57,0% 13,1 4,6 9,05 13,54 4,42   22,5   6,54       1013,3 1007,0 1010,69 1011,20 1,6      
Moy 24,57 11,85 18,39 18,21 18,46 24,41 17,69 11,34 12,72 24,38 11,90 18,14 94,9% 48,8% 74,5% 71,9% 16,14 9,65 13,21 24,52 11,31   37,37   15,07       1020,66 1016,25 1018,43 1018,46 4,42      
Total                                                   63,0 14,0             0,0    
 
  Observations      
Jours Rafales >= 36,0 km/h Rafales >= 57,6 km/h Rafales >= 75,6 km/h Rafales >= 100,8 km/h Précipi. >= 0,1 mm Précipi. >= 1,0 mm Précipi. >= 5,0 mm Précipi. >= 10,0 mm Tx <= 0 Tx >= 25 Tx >= 30 Tx >= 35 Tx >= 40 Tn <= 0 Tn <= -5 Tn <= -10 Tn <= -15 T moy <= 0 T moy <=     -5 T moy >= 20 T moy >= 25 T moy >= 30 Grêle Grésil Brouillard Brume Orage Neige        
01/07/2012 1 0 0 0 1 0 0 0 0 0 0 0 0 0 0 0 0 0 0 0 0 0 0 0 0 0 0 0    
02/07/2012 0 0 0 0 0 0 0 0 0 0 0 0 0 0 0 0 0 0 0 0 0 0 0 0 0 0 0 0    
03/07/2012 0 0 0 0 0 0 0 0 0 1 0 0 0 0 0 0 0 0 0 0 0 0 0 0 0 0 0 0    
04/07/2012 1 0 0 0 0 0 0 0 0 1 0 0 0 0 0 0 0 0 0 0 0 0 0 0 0 0 0 0    
05/07/2012 1 0 0 0 1 0 0 0 0 0 0 0 0 0 0 0 0 0 0 0 0 0 0 0 0 0 0 0    
06/07/2012 1 0 0 0 1 1 1 1 0 0 0 0 0 0 0 0 0 0 0 0 0 0 0 0 0 0 0 0    
07/07/2012 1 0 0 0 1 1 1 0 0 1 0 0 0 0 0 0 0 0 0 0 0 0 0 0 0 0 0 0    
08/07/2012 1 0 0 0 1 1 0 0 0 0 0 0 0 0 0 0 0 0 0 0 0 0 0 0 0 0 0 0    
09/07/2012 1 0 0 0 1 0 0 0 0 0 0 0 0 0 0 0 0 0 0 0 0 0 0 0 0 0 0 0    
10/07/2012 1 0 0 0 0 0 0 0 0 0 0 0 0 0 0 0 0 0 0 0 0 0 0 0 0 0 0 0    
11/07/2012 1 0 0 0 0 0 0 0 0 0 0 0 0 0 0 0 0 0 0 0 0 0 0 0 0 0 0 0    
12/07/2012 1 0 0 0 0 0 0 0 0 0 0 0 0 0 0 0 0 0 0 0 0 0 0 0 0 0 0 0    
13/07/2012 1 1 0 0 1 1 1 1 0 0 0 0 0 0 0 0 0 0 0 0 0 0 0 0 0 0 0 0    
14/07/2012 1 0 0 0 1 1 0 0 0 0 0 0 0 0 0 0 0 0 0 0 0 0 0 0 0 0 0 0    
15/07/2012 1 0 0 0 1 1 0 0 0 0 0 0 0 0 0 0 0 0 0 0 0 0 0 0 0 0 0 0    
16/07/2012 0 0 0 0 1 0 0 0 0 0 0 0 0 0 0 0 0 0 0 0 0 0 0 0 0 0 0 0    
17/07/2012 0 0 0 0 0 0 0 0 0 1 0 0 0 0 0 0 0 0 0 0 0 0 0 0 0 0 0 0    
18/07/2012 0 0 0 0 0 0 0 0 0 1 0 0 0 0 0 0 0 0 0 0 0 0 0 0 0 0 0 0    
19/07/2012 1 0 0 0 1 0 0 0 0 0 0 0 0 0 0 0 0 0 0 0 0 0 0 0 0 0 0 0    
20/07/2012 0 0 0 0 1 1 0 0 0 0 0 0 0 0 0 0 0 0 0 0 0 0 0 0 0 0 0 0    
21/07/2012 0 0 0 0 1 0 0 0 0 0 0 0 0 0 0 0 0 0 0 0 0 0 0 0 0 0 0 0    
22/07/2012 0 0 0 0 0 0 0 0 0 1 0 0 0 0 0 0 0 0 0 0 0 0 0 0 0 0 0 0    
23/07/2012 0 0 0 0 0 0 0 0 0 1 0 0 0 0 0 0 0 0 0 1 0 0 0 0 0 0 0 0    
24/07/2012 0 0 0 0 0 0 0 0 0 1 1 0 0 0 0 0 0 0 0 1 0 0 0 0 0 0 0 0    
25/07/2012 0 0 0 0 0 0 0 0 0 1 1 0 0 0 0 0 0 0 0 1 0 0 0 0 0 0 0 0    
26/07/2012 0 0 0 0 0 0 0 0 0 1 1 1 0 0 0 0 0 0 0 1 1 0 0 0 0 0 0 0    
27/07/2012 1 0 0 0 1 0 0 0 0 0 0 0 0 0 0 0 0 0 0 1 0 0 0 0 0 0 0 0    
28/07/2012 1 0 0 0 0 0 0 0 0 0 0 0 0 0 0 0 0 0 0 0 0 0 0 0 0 0 0 0    
29/07/2012 1 0 0 0 0 0 0 0 0 0 0 0 0 0 0 0 0 0 0 0 0 0 0 0 0 0 0 0    
30/07/2012 1 0 0 0 0 0 0 0 0 0 0 0 0 0 0 0 0 0 0 0 0 0 0 0 0 0 0 0    
31/07/2012 0 0 0 0 0 0 0 0 0 1 0 0 0 0 0 0 0 0 0 0 0 0 0 0 0 0 0 0    
   
  Rafales >= 36,0 km/h Rafales >= 57,6 km/h Rafales >= 75,6 km/h Rafales >= 100,8 km/h Précipi. >= 0,1 mm Précipi. >= 1,0 mm Précipi. >= 5,0 mm Précipi. >= 10,0 mm Tx <=0 Tx >= 25 Tx >= 30 Tx >= 35 Tx >= 40 Tn <= 0 Tn <= -5 Tn <= -10 Tn <= -15 T moy <= 0 T moy <=  -5 T moy >= 20 T moy >= 25 T moy >= 30 Grêle Grésil Brouillard Brume Orage Neige        
Total 18 1 0 0 14 7 3 2 0 11 3 1 0 0 0 0 0 0 0 5 1 0 0 0 0 0 0 0